Time;durP1;ratioP1;P1;durP2;ratioP2;P2;SDS_P1;SDS_P2;PMS_P1;PMS_P2;Temp;Humidity;BMP_temperature;BMP_pressure;BME280_temperature;BME280_humidity;BME280_pressure;Samples;Min_cycle;Max_cycle;Signal;HPM_P1;HPM_P2
2022/11/18 00:01:08;;;;;;;2.35;1.80;;;;;;;8.07;100.00;99313.31;5032594;28;20033;-69
2022/11/18 00:03:33;;;;;;;5.03;1.80;;;;;;;8.04;100.00;99312.41;5016252;28;20056;-67
2022/11/18 00:05:59;;;;;;;4.70;1.98;;;;;;;7.98;100.00;99317.66;5032397;28;20038;-68
2022/11/18 00:08:25;;;;;;;3.70;2.10;;;;;;;7.97;100.00;99308.91;5025762;28;20025;-67
2022/11/18 00:10:51;;;;;;;3.90;2.00;;;;;;;7.98;100.00;99328.16;5017636;28;20029;-67
2022/11/18 00:16:02;;;;;;;4.43;2.00;;;;;;;7.96;100.00;99335.09;5035045;28;20421;-69
2022/11/18 00:18:28;;;;;;;4.57;1.98;;;;;;;7.92;100.00;99340.34;5017879;28;20382;-68
2022/11/18 00:20:53;;;;;;;8.18;2.50;;;;;;;7.96;100.00;99340.34;5025499;28;20092;-67
2022/11/18 00:23:19;;;;;;;4.50;1.92;;;;;;;7.93;100.00;99343.81;5015461;28;20030;-69
2022/11/18 00:25:44;;;;;;;4.68;1.80;;;;;;;7.92;100.00;99349.94;5029264;28;20013;-70
2022/11/18 00:28:09;;;;;;;3.75;2.15;;;;;;;7.95;100.00;99349.97;5034783;28;20056;-69
2022/11/18 00:30:34;;;;;;;10.68;2.15;;;;;;;7.94;100.00;99350.81;5033984;28;20461;-68
2022/11/18 00:33:00;;;;;;;4.75;2.70;;;;;;;7.92;100.00;99353.44;5017569;28;20034;-68
2022/11/18 00:35:25;;;;;;;6.68;2.15;;;;;;;7.91;100.00;99353.44;5025864;28;20031;-68
2022/11/18 00:37:50;;;;;;;6.75;2.30;;;;;;;7.88;100.00;99366.50;5025853;28;20021;-69
2022/11/18 00:40:16;;;;;;;8.57;2.65;;;;;;;7.88;100.00;99369.13;5026113;28;20033;-69
2022/11/18 00:42:50;;;;;;;5.70;2.55;;;;;;;7.90;100.00;99372.63;5017665;28;20053;-70
2022/11/18 00:45:17;;;;;;;3.65;2.28;;;;;;;7.90;100.00;99375.25;5028552;28;20030;-69
2022/11/18 00:47:43;;;;;;;7.35;2.80;;;;;;;7.90;100.00;99375.25;5017360;28;20108;-69
2022/11/18 00:50:08;;;;;;;6.95;2.30;;;;;;;7.85;100.00;99380.47;5031923;28;20048;-68
2022/11/18 00:52:34;;;;;;;3.92;2.30;;;;;;;7.84;100.00;99383.06;5030580;28;20029;-69
2022/11/18 00:54:59;;;;;;;12.70;3.28;;;;;;;7.83;100.00;99382.22;5015038;28;20026;-68
2022/11/18 00:57:24;;;;;;;8.43;3.05;;;;;;;7.80;100.00;99384.81;5016812;28;20090;-68
2022/11/18 00:59:50;;;;;;;5.22;2.45;;;;;;;7.81;100.00;99393.53;5034917;28;20040;-69
2022/11/18 01:02:15;;;;;;;4.68;2.70;;;;;;;7.79;100.00;99397.91;5024220;28;20103;-69
2022/11/18 01:04:40;;;;;;;4.70;2.63;;;;;;;7.76;100.00;99407.50;5018770;28;20077;-69
2022/11/18 01:07:06;;;;;;;4.63;2.55;;;;;;;7.75;100.00;99400.50;5030622;28;20032;-68
2022/11/18 01:09:31;;;;;;;8.32;2.90;;;;;;;7.76;100.00;99414.47;5030335;28;20370;-69
2022/11/18 01:14:40;;;;;;;4.18;2.72;;;;;;;7.73;100.00;99417.06;5014966;28;20131;-69
2022/11/18 01:17:06;;;;;;;6.30;3.05;;;;;;;7.74;100.00;99421.44;5030735;28;20058;-68
2022/11/18 01:19:31;;;;;;;4.53;2.70;;;;;;;7.72;100.00;99413.59;5014616;28;20528;-69
2022/11/18 01:22:01;;;;;;;3.08;2.63;;;;;;;7.68;100.00;99419.66;5015771;28;20029;-68
2022/11/18 01:24:27;;;;;;;9.77;3.35;;;;;;;7.64;100.00;99431.00;5032124;28;20029;-69
2022/11/18 01:26:53;;;;;;;5.20;3.25;;;;;;;7.61;100.00;99425.75;5013400;28;20022;-68
2022/11/18 01:29:18;;;;;;;6.13;3.72;;;;;;;7.58;100.00;99431.84;5033487;28;20389;-68
2022/11/18 01:31:43;;;;;;;8.05;3.28;;;;;;;7.56;100.00;99437.94;5028316;28;20032;-68
2022/11/18 01:34:09;;;;;;;5.00;3.67;;;;;;;7.55;100.00;99441.41;5014670;28;20032;-68
2022/11/18 01:36:34;;;;;;;6.68;3.67;;;;;;;7.54;100.00;99443.16;5014283;28;20105;-67
2022/11/18 01:38:59;;;;;;;8.15;4.32;;;;;;;7.52;100.00;99439.66;5023287;28;20367;-69
2022/11/18 01:41:26;;;;;;;7.03;3.55;;;;;;;7.52;100.00;99444.00;5014396;28;20033;-69
2022/11/18 01:44:04;;;;;;;4.80;3.63;;;;;;;7.50;100.00;99446.63;5014206;28;20025;-67
2022/11/18 01:46:32;;;;;;;9.45;4.10;;;;;;;7.49;100.00;99443.97;5028958;28;20026;-69
2022/11/18 01:49:07;;;;;;;9.88;4.28;;;;;;;7.53;100.00;99456.25;5028588;28;20033;-68
2022/11/18 01:51:37;;;;;;;10.85;4.97;;;;;;;7.52;100.00;99454.50;5033332;28;20025;-69
2022/11/18 01:54:16;;;;;;;7.05;4.15;;;;;;;7.52;100.00;99444.00;5032569;28;20022;-68
2022/11/18 01:56:45;;;;;;;8.43;4.63;;;;;;;7.53;100.00;99456.25;5029496;28;20033;-68
2022/11/18 01:59:15;;;;;;;6.95;4.72;;;;;;;7.51;100.00;99452.72;5019869;28;20029;-70
2022/11/18 02:01:40;;;;;;;11.30;4.82;;;;;;;7.49;100.00;99455.34;5027676;28;20076;-69
2022/11/18 02:04:08;;;;;;;8.18;4.20;;;;;;;7.51;100.00;99457.97;5025232;28;20053;-68
2022/11/18 02:06:34;;;;;;;6.82;4.38;;;;;;;7.50;100.00;99461.44;5033070;28;20452;-69
2022/11/18 02:09:00;;;;;;;10.45;4.60;;;;;;;7.50;100.00;99461.44;5030735;28;20025;-68
2022/11/18 02:14:09;;;;;;;7.05;4.88;;;;;;;7.49;100.00;99472.75;5020108;28;20547;-70
2022/11/18 02:16:37;;;;;;;12.65;5.22;;;;;;;7.47;100.00;99477.13;5014061;28;20029;-68
2022/11/18 02:19:17;;;;;;;12.23;5.32;;;;;;;7.48;100.00;99484.13;5024583;28;20032;-70
2022/11/18 02:21:55;;;;;;;7.25;5.00;;;;;;;7.46;100.00;99480.59;5013106;28;20092;-68
2022/11/18 02:24:42;;;;;;;10.82;4.68;;;;;;;7.47;100.00;99490.22;5030722;28;20083;-69
2022/11/18 02:27:16;;;;;;;9.52;5.22;;;;;;;7.42;100.00;99491.06;5013516;28;20061;-68
2022/11/18 02:29:44;;;;;;;10.43;5.38;;;;;;;7.40;100.00;99486.69;5032123;28;20045;-69
2022/11/18 02:32:15;;;;;;;9.25;4.72;;;;;;;7.38;100.00;99488.38;5027594;28;20462;-69
2022/11/18 02:35:04;;;;;;;7.85;5.32;;;;;;;7.36;100.00;99491.00;5030512;28;20034;-69
2022/11/18 02:37:43;;;;;;;9.90;5.43;;;;;;;7.33;100.00;99497.97;5030115;28;20025;-69
2022/11/18 02:40:26;;;;;;;9.88;5.13;;;;;;;7.33;100.00;99506.69;5016155;28;20064;-69
2022/11/18 02:43:02;;;;;;;10.27;5.05;;;;;;;7.30;100.00;99506.66;5019994;28;20025;-69
2022/11/18 02:45:29;;;;;;;10.52;5.50;;;;;;;7.33;100.00;99513.66;5017463;28;20398;-68
2022/11/18 02:48:00;;;;;;;13.02;5.85;;;;;;;7.30;100.00;99506.66;5013759;28;20033;-71
2022/11/18 02:50:29;;;;;;;10.10;5.95;;;;;;;7.30;100.00;99517.13;5018825;28;20086;-71
2022/11/18 02:52:58;;;;;;;11.90;5.72;;;;;;;7.30;100.00;99511.91;5014301;28;20123;-69
2022/11/18 02:55:29;;;;;;;12.88;5.65;;;;;;;7.26;100.00;99520.59;5025592;28;20041;-70
2022/11/18 02:57:56;;;;;;;11.18;5.40;;;;;;;7.22;100.00;99508.34;5022142;28;20397;-69
2022/11/18 03:00:21;;;;;;;12.50;6.35;;;;;;;7.20;100.00;99515.28;5032363;28;20032;-67
2022/11/18 03:02:48;;;;;;;10.50;5.43;;;;;;;7.18;100.00;99515.28;5015345;28;20474;-68
2022/11/18 03:05:47;;;;;;;12.60;5.82;;;;;;;7.19;100.00;99514.44;5012181;28;20030;-69
2022/11/18 03:08:19;;;;;;;12.68;5.80;;;;;;;7.18;100.00;99517.03;5012961;28;20057;-68
2022/11/18 03:11:21;;;;;;;10.38;5.53;;;;;;;7.17;100.00;99513.53;5019951;28;20424;-70
2022/11/18 03:14:23;;;;;;;10.98;5.53;;;;;;;7.15;100.00;99522.22;5027506;28;20041;-70
2022/11/18 03:16:59;;;;;;;10.65;4.88;;;;;;;7.14;100.00;99520.47;5018643;28;20492;-68
2022/11/18 03:19:44;;;;;;;8.80;5.15;;;;;;;7.13;100.00;99523.97;5028859;28;20367;-67
2022/11/18 03:22:23;;;;;;;9.32;5.40;;;;;;;7.09;100.00;99523.94;5025842;28;20029;-70
2022/11/18 03:25:12;;;;;;;9.40;5.13;;;;;;;7.08;100.00;99530.03;5019354;28;20042;-69
2022/11/18 03:27:48;;;;;;;14.38;5.78;;;;;;;7.07;100.00;99530.88;5026162;28;20029;-69
2022/11/18 03:30:17;;;;;;;11.20;5.65;;;;;;;7.08;100.00;99531.75;5019125;28;20041;-69
2022/11/18 03:32:50;;;;;;;15.38;5.72;;;;;;;7.09;100.00;99534.41;5019625;28;20030;-69
2022/11/18 03:35:21;;;;;;;11.68;5.25;;;;;;;7.12;100.00;99541.38;5022862;28;20466;-69
2022/11/18 03:37:51;;;;;;;8.13;5.45;;;;;;;7.15;100.00;99544.03;5019061;28;20025;-68
2022/11/18 03:40:26;;;;;;;13.77;6.25;;;;;;;7.20;100.00;99544.97;5022883;28;20441;-69
2022/11/18 03:43:01;;;;;;;13.75;6.22;;;;;;;7.25;100.00;99548.47;5037362;28;20021;-70
2022/11/18 03:45:38;;;;;;;14.02;5.80;;;;;;;7.32;100.00;99552.03;5037053;28;20029;-69
2022/11/18 03:48:13;;;;;;;10.75;6.35;;;;;;;7.36;100.00;99545.94;5035456;28;20496;-68
2022/11/18 03:50:44;;;;;;;13.75;5.57;;;;;;;7.41;100.00;99544.25;5034667;28;20074;-68
2022/11/18 03:53:12;;;;;;;11.20;6.65;;;;;;;7.47;100.00;99553.91;5020286;28;20017;-68
2022/11/18 03:55:41;;;;;;;10.90;5.82;;;;;;;7.48;100.00;99557.41;5019025;28;20029;-69
2022/11/18 03:58:06;;;;;;;14.93;5.93;;;;;;;7.47;100.00;99566.13;5028757;28;20037;-69
2022/11/18 04:00:38;;;;;;;10.95;6.15;;;;;;;7.45;100.00;99562.59;5037252;28;20087;-70
2022/11/18 04:03:03;;;;;;;10.88;5.75;;;;;;;7.40;100.00;99566.06;5021914;28;20030;-69
2022/11/18 04:05:34;;;;;;;11.80;5.45;;;;;;;7.36;100.00;99569.50;5019001;28;20527;-68
2022/11/18 04:08:03;;;;;;;15.63;6.38;;;;;;;7.33;100.00;99576.47;5018802;28;20034;-68
2022/11/18 04:10:44;;;;;;;13.02;6.32;;;;;;;7.31;100.00;99576.47;5035727;28;20022;-69
2022/11/18 04:13:31;;;;;;;11.13;5.93;;;;;;;7.28;100.00;99579.03;5034178;28;20029;-68
2022/11/18 04:15:57;;;;;;;11.48;5.70;;;;;;;7.29;100.00;99578.16;5026954;28;20026;-69
2022/11/18 04:18:22;;;;;;;9.73;6.03;;;;;;;7.28;100.00;99580.78;5027325;28;20067;-69
2022/11/18 04:20:47;;;;;;;10.70;5.85;;;;;;;7.27;100.00;99582.53;5027734;28;20379;-69
2022/11/18 04:23:13;;;;;;;12.43;6.22;;;;;;;7.22;100.00;99592.94;5018036;28;20078;-69
2022/11/18 04:25:38;;;;;;;11.95;5.97;;;;;;;7.22;100.00;99587.69;5021580;28;20037;-70
2022/11/18 04:28:04;;;;;;;13.40;6.13;;;;;;;7.21;100.00;99592.91;5028426;28;20072;-68
2022/11/18 04:30:30;;;;;;;13.38;5.72;;;;;;;7.20;100.00;99593.78;5023770;28;20118;-68
2022/11/18 04:32:56;;;;;;;10.70;6.03;;;;;;;7.19;100.00;99607.72;5027482;28;20384;-70
2022/11/18 04:35:21;;;;;;;8.40;5.88;;;;;;;7.16;100.00;99612.91;5025392;28;20030;-69
2022/11/18 04:37:47;;;;;;;13.68;6.15;;;;;;;7.17;100.00;99609.44;5015499;28;20028;-69
2022/11/18 04:40:12;;;;;;;9.48;5.15;;;;;;;7.17;100.00;99623.41;5028747;28;20112;-69
2022/11/18 04:42:37;;;;;;;16.67;6.70;;;;;;;7.21;100.00;99619.09;5016536;28;20117;-69
2022/11/18 04:45:03;;;;;;;14.75;6.05;;;;;;;7.21;100.00;99624.31;5020286;28;20036;-68
2022/11/18 04:47:29;;;;;;;9.00;6.30;;;;;;;7.22;100.00;99631.31;5031314;28;20057;-69
2022/11/18 04:49:54;;;;;;;10.68;6.35;;;;;;;7.22;100.00;99633.94;5034886;28;20030;-68
2022/11/18 04:52:19;;;;;;;9.95;5.05;;;;;;;7.23;100.00;99636.56;5017476;28;20029;-69
2022/11/18 04:54:45;;;;;;;11.75;5.85;;;;;;;7.26;100.00;99633.97;5019229;28;20515;-69
2022/11/18 04:57:11;;;;;;;10.23;5.55;;;;;;;7.23;100.00;99633.03;5018091;28;20041;-70
2022/11/18 04:59:36;;;;;;;12.80;5.13;;;;;;;7.24;100.00;99637.41;5030977;28;20061;-68
2022/11/18 05:02:02;;;;;;;14.63;5.53;;;;;;;7.26;100.00;99643.56;5021186;28;20417;-69
2022/11/18 05:04:31;;;;;;;12.40;6.25;;;;;;;7.27;100.00;99647.94;5029379;28;20032;-68
2022/11/18 05:06:56;;;;;;;15.82;5.97;;;;;;;7.26;100.00;99652.28;5015387;28;20096;-69
2022/11/18 05:09:22;;;;;;;11.77;5.78;;;;;;;7.30;100.00;99650.59;5023259;28;20095;-69
2022/11/18 05:14:31;;;;;;;;;;;;;;;7.30;100.00;99653.19;5015158;28;20057;-69
2022/11/18 05:17:00;;;;;;;13.65;5.60;;;;;;;7.29;100.00;99659.28;5018356;28;19913;-69
2022/11/18 05:19:25;;;;;;;10.70;6.03;;;;;;;7.29;100.00;99664.53;5015510;28;20026;-68
2022/11/18 05:21:51;;;;;;;12.50;5.80;;;;;;;7.23;100.00;99662.72;5016148;28;20033;-69
2022/11/18 05:24:17;;;;;;;12.18;5.93;;;;;;;7.20;100.00;99656.56;5021079;28;20529;-68
2022/11/18 05:26:42;;;;;;;13.98;5.47;;;;;;;7.18;100.00;99661.78;5033311;28;20033;-68
2022/11/18 05:29:08;;;;;;;9.63;5.72;;;;;;;7.17;100.00;99667.00;5033969;28;20013;-69
2022/11/18 05:31:34;;;;;;;12.40;5.30;;;;;;;7.17;100.00;99674.84;5021444;28;20037;-69
2022/11/18 05:34:00;;;;;;;15.52;5.07;;;;;;;7.11;100.00;99672.16;5014136;28;20103;-69
2022/11/18 05:36:25;;;;;;;14.60;6.40;;;;;;;7.09;100.00;99672.13;5026191;28;20100;-68
2022/11/18 05:38:50;;;;;;;11.15;5.85;;;;;;;7.08;100.00;99676.50;5032612;28;20500;-69
2022/11/18 05:44:02;;;;;;;13.45;6.00;;;;;;;7.05;100.00;99678.19;5019438;28;20440;-69
2022/11/18 05:46:30;;;;;;;13.77;5.88;;;;;;;7.04;100.00;99689.50;5029166;28;20373;-68
2022/11/18 05:48:55;;;;;;;12.80;6.35;;;;;;;7.00;100.00;99679.88;5034095;28;20030;-69
2022/11/18 05:51:21;;;;;;;18.42;5.65;;;;;;;6.98;100.00;99687.69;5023366;28;20029;-69
2022/11/18 05:53:49;;;;;;;11.98;4.95;;;;;;;6.96;100.00;99693.78;5015010;28;20033;-68
2022/11/18 05:56:28;;;;;;;13.55;5.38;;;;;;;6.96;100.00;99685.94;5022140;28;20042;-69
2022/11/18 05:58:53;;;;;;;11.57;5.90;;;;;;;6.96;100.00;99689.44;5026104;28;20373;-69
2022/11/18 06:01:24;;;;;;;11.55;5.40;;;;;;;6.98;100.00;99687.69;5025464;28;20026;-68
2022/11/18 06:03:50;;;;;;;19.85;5.32;;;;;;;6.96;100.00;99689.44;5019388;28;20026;-69
2022/11/18 06:06:19;;;;;;;11.98;6.32;;;;;;;6.98;100.00;99690.31;5013790;28;20026;-69
2022/11/18 06:08:54;;;;;;;12.00;6.00;;;;;;;7.00;100.00;99701.69;5017129;28;20100;-69
2022/11/18 06:11:20;;;;;;;10.15;6.07;;;;;;;7.02;100.00;99705.19;5019896;28;20394;-68
2022/11/18 06:13:53;;;;;;;16.75;6.47;;;;;;;7.02;100.00;99714.78;5018080;28;20045;-69
2022/11/18 06:16:23;;;;;;;11.13;6.30;;;;;;;6.97;100.00;99717.31;5021379;28;20033;-68
2022/11/18 06:18:49;;;;;;;21.33;6.70;;;;;;;6.97;100.00;99727.78;5014932;28;20433;-70
2022/11/18 06:21:14;;;;;;;12.85;6.03;;;;;;;6.94;100.00;99724.28;5019262;28;20030;-70
2022/11/18 06:23:41;;;;;;;10.85;5.63;;;;;;;6.92;100.00;99729.47;5020718;28;20044;-70
2022/11/18 06:26:08;;;;;;;11.07;5.47;;;;;;;6.90;100.00;99731.19;5029270;28;20104;-70
2022/11/18 06:28:34;;;;;;;14.60;6.25;;;;;;;6.87;100.00;99741.63;5015194;28;20529;-69
2022/11/18 06:30:59;;;;;;;16.27;6.55;;;;;;;6.84;100.00;99742.44;5021301;28;20106;-69
2022/11/18 06:33:25;;;;;;;10.55;5.63;;;;;;;6.81;100.00;99749.34;5029031;28;20173;-69
2022/11/18 06:35:50;;;;;;;14.55;6.63;;;;;;;6.80;100.00;99748.50;5025116;28;20331;-69
2022/11/18 06:38:15;;;;;;;11.82;6.45;;;;;;;6.81;100.00;99754.59;5024554;28;20021;-69
2022/11/18 06:40:43;;;;;;;15.73;7.13;;;;;;;6.80;100.00;99750.25;5024796;28;20595;-69
2022/11/18 06:48:43;;;;;;;21.27;6.57;;;;;;;6.74;100.00;99756.22;5029392;28;20044;-69
2022/11/18 06:51:08;;;;;;;14.13;7.07;;;;;;;6.73;100.00;99771.06;5037976;28;20024;-68
2022/11/18 06:53:34;;;;;;;9.77;5.93;;;;;;;6.71;100.00;99775.38;5025582;28;20037;-67
2022/11/18 06:56:07;;;;;;;21.88;8.15;;;;;;;6.73;100.00;99781.50;5014183;28;20026;-68
2022/11/18 06:58:33;;;;;;;13.27;6.25;;;;;;;6.74;100.00;99788.50;5032501;28;20073;-69
2022/11/18 07:01:09;;;;;;;12.55;6.35;;;;;;;6.70;100.00;99786.69;5022337;28;20052;-69
2022/11/18 07:03:34;;;;;;;14.88;6.45;;;;;;;6.71;100.00;99793.66;5020051;28;20029;-69
2022/11/18 07:06:00;;;;;;;13.02;6.38;;;;;;;6.71;100.00;99798.91;5023142;28;20028;-68
2022/11/18 07:08:25;;;;;;;15.18;6.57;;;;;;;6.69;100.00;99799.75;5028696;28;20037;-70
2022/11/18 07:10:52;;;;;;;12.20;6.10;;;;;;;6.67;100.00;99801.44;5021805;28;20029;-71
2022/11/18 07:13:18;;;;;;;17.90;6.80;;;;;;;6.66;100.00;99802.31;5033155;28;20034;-70
2022/11/18 07:15:43;;;;;;;17.00;6.00;;;;;;;6.66;100.00;99817.97;5031949;28;20076;-71
2022/11/18 07:18:09;;;;;;;15.48;6.43;;;;;;;6.65;100.00;99822.34;5030291;28;20040;-68
2022/11/18 07:20:35;;;;;;;10.27;5.65;;;;;;;6.68;100.00;99824.13;5032338;28;20021;-69
2022/11/18 07:23:00;;;;;;;11.55;6.40;;;;;;;6.70;100.00;99825.91;5032893;28;20042;-70
2022/11/18 07:25:26;;;;;;;13.73;6.45;;;;;;;6.75;100.00;99820.75;5028578;28;20029;-70
2022/11/18 07:27:52;;;;;;;15.10;5.95;;;;;;;6.78;100.00;99822.53;5020836;28;20017;-70
2022/11/18 07:30:17;;;;;;;13.35;5.45;;;;;;;6.86;100.00;99818.28;5029813;28;20473;-71
2022/11/18 07:32:43;;;;;;;15.45;5.90;;;;;;;6.90;100.00;99827.94;5037251;28;20096;-70
2022/11/18 07:35:09;;;;;;;13.43;5.95;;;;;;;6.98;100.00;99838.53;5037627;28;20083;-70
2022/11/18 07:37:34;;;;;;;16.38;5.78;;;;;;;7.00;100.00;99835.09;5025273;28;20084;-70
2022/11/18 07:39:59;;;;;;;14.50;6.35;;;;;;;7.05;100.00;99841.28;5027565;28;20021;-68
2022/11/18 07:42:25;;;;;;;9.90;5.25;;;;;;;7.07;100.00;99850.00;5017989;28;20030;-70
2022/11/18 07:44:50;;;;;;;10.07;5.05;;;;;;;7.10;100.00;99849.16;5022225;28;20034;-70
2022/11/18 07:47:15;;;;;;;11.98;4.63;;;;;;;7.14;100.00;99855.34;5028812;28;20038;-69
2022/11/18 07:49:41;;;;;;;12.98;5.28;;;;;;;7.17;100.00;99856.25;5020108;28;20057;-68
2022/11/18 07:52:06;;;;;;;12.23;5.22;;;;;;;7.19;100.00;99865.00;5017705;28;20526;-69
2022/11/18 07:54:31;;;;;;;11.07;4.97;;;;;;;7.24;100.00;99867.69;5017348;28;20109;-69
2022/11/18 07:56:57;;;;;;;10.40;5.22;;;;;;;7.27;100.00;99870.34;5023436;28;20054;-69
2022/11/18 07:59:22;;;;;;;19.35;5.13;;;;;;;7.31;100.00;99879.09;5021873;28;20028;-70
2022/11/18 08:01:47;;;;;;;15.13;5.07;;;;;;;7.35;100.00;99873.97;5031516;28;20165;-69
2022/11/18 08:04:12;;;;;;;11.88;5.18;;;;;;;7.38;100.00;99881.84;5023610;28;20442;-67
2022/11/18 08:06:38;;;;;;;12.50;4.95;;;;;;;7.44;100.00;99891.50;5032228;28;20026;-69
2022/11/18 08:09:06;;;;;;;13.57;4.68;;;;;;;7.47;100.00;99885.44;5039759;28;20029;-70
2022/11/18 08:11:31;;;;;;;11.00;4.50;;;;;;;7.53;100.00;99890.78;5046450;28;20079;-69
2022/11/18 08:13:57;;;;;;;14.73;4.75;;;;;;;7.58;100.00;99899.53;5041967;28;20025;-69
2022/11/18 08:16:24;;;;;;;9.57;4.57;;;;;;;7.66;100.00;99897.91;5031202;28;20028;-69
2022/11/18 08:18:50;;;;;;;12.20;4.65;;;;;;;7.69;100.00;99903.22;5044295;28;20109;-70
2022/11/18 08:21:17;;;;;;;16.02;5.20;;;;;;;7.78;100.00;99909.41;5030590;28;20645;-69
2022/11/18 08:23:42;;;;;;;11.80;5.07;;;;;;;7.83;100.00;99906.00;5041740;28;20027;-69
2022/11/18 08:26:13;;;;;;;11.45;4.85;;;;;;;7.84;100.00;99906.84;5049261;28;20473;-68
2022/11/18 08:28:40;;;;;;;10.43;3.70;;;;;;;7.91;100.00;99914.81;5035440;28;20489;-69
2022/11/18 08:31:25;;;;;;;10.95;4.15;;;;;;;8.04;100.00;99917.59;5024260;28;20148;-68
2022/11/18 08:34:02;;;;;;;9.57;4.35;;;;;;;8.05;100.00;99922.84;5022799;28;20408;-70
2022/11/18 08:36:31;;;;;;;12.23;4.40;;;;;;;8.15;100.00;99922.94;5016702;28;20029;-69
2022/11/18 08:38:58;;;;;;;13.32;4.43;;;;;;;8.17;100.00;99929.09;5026032;28;20033;-69
2022/11/18 08:41:36;;;;;;;13.07;5.10;;;;;;;8.18;100.00;99933.47;5031125;28;20456;-69
2022/11/18 08:44:02;;;;;;;11.52;4.43;;;;;;;8.20;100.00;99932.63;5029999;28;20564;-71
2022/11/18 08:46:28;;;;;;;14.32;3.95;;;;;;;8.22;100.00;99937.88;5026273;28;20113;-68
2022/11/18 08:48:53;;;;;;;11.85;3.85;;;;;;;8.28;100.00;99937.97;5019259;28;20044;-70
2022/11/18 08:51:19;;;;;;;14.50;3.88;;;;;;;8.31;100.00;99939.75;5021729;28;20421;-69
2022/11/18 08:53:44;;;;;;;9.35;3.92;;;;;;;8.32;100.00;99939.75;5020090;28;20492;-68
2022/11/18 08:56:19;;;;;;;7.97;3.45;;;;;;;8.37;100.00;99945.94;5034943;28;20025;-69
2022/11/18 08:58:45;;;;;;;9.70;4.07;;;;;;;8.44;100.00;99942.50;5024258;28;20042;-69
2022/11/18 09:01:12;;;;;;;9.48;3.65;;;;;;;8.56;100.00;99944.41;5021841;28;20061;-69
2022/11/18 09:03:38;;;;;;;6.57;3.28;;;;;;;8.55;100.00;99945.28;5028015;28;20030;-70
2022/11/18 09:06:15;;;;;;;14.68;3.88;;;;;;;8.58;100.00;99949.66;5035136;28;20033;-69
2022/11/18 09:08:42;;;;;;;7.55;3.10;;;;;;;8.59;100.00;99956.69;5022139;28;20048;-69
2022/11/18 09:11:13;;;;;;;11.07;3.45;;;;;;;8.62;100.00;99961.94;5040399;28;20036;-68
2022/11/18 09:13:39;;;;;;;5.20;3.17;;;;;;;8.63;100.00;99955.84;5041092;28;20100;-67
2022/11/18 09:16:06;;;;;;;13.15;2.88;;;;;;;8.73;100.00;99957.69;5033131;28;20045;-69
2022/11/18 09:18:31;;;;;;;12.98;3.22;;;;;;;8.75;100.00;99960.34;5032888;28;20120;-69
2022/11/18 09:21:00;;;;;;;10.70;3.13;;;;;;;8.77;100.00;99964.72;5028122;28;20107;-69
2022/11/18 09:23:25;;;;;;;8.68;2.92;;;;;;;8.80;100.00;99965.63;5033971;28;20083;-68
2022/11/18 09:25:58;;;;;;;15.05;3.78;;;;;;;8.81;100.00;99977.88;5037788;28;20033;-68
2022/11/18 09:28:24;;;;;;;11.73;3.10;;;;;;;8.80;100.00;99976.97;5032330;28;20068;-69
2022/11/18 09:30:49;;;;;;;12.68;3.03;;;;;;;8.87;100.00;99983.16;5024431;28;20025;-71
2022/11/18 09:33:15;;;;;;;9.63;2.75;;;;;;;8.97;100.00;99977.16;5027497;28;20470;-70
2022/11/18 09:35:41;;;;;;;6.55;2.53;;;;;;;8.96;100.00;99978.00;5025137;28;20035;-71
2022/11/18 09:38:07;;;;;;;8.18;3.05;;;;;;;8.93;100.00;99986.72;5027336;28;20025;-69
2022/11/18 09:40:38;;;;;;;10.68;2.60;;;;;;;8.99;100.00;99983.28;5050153;28;20040;-70
2022/11/18 09:43:18;;;;;;;11.70;3.15;;;;;;;9.01;100.00;99996.44;5031565;28;20033;-69
2022/11/18 09:45:53;;;;;;;11.05;2.63;;;;;;;9.02;100.00;99990.31;5017503;28;20033;-69
2022/11/18 09:49:11;;;;;;;11.07;2.58;;;;;;;8.96;100.00;99996.38;5024806;28;20044;-68
2022/11/18 09:51:08;;;;;;;6.80;2.75;;;;;;;9.03;100.00;100003.44;5031307;28;20542;-70
2022/11/18 09:53:34;;;;;;;8.48;2.70;;;;;;;9.06;100.00;100002.59;5034171;28;20091;-69
2022/11/18 09:56:01;;;;;;;7.75;2.55;;;;;;;9.02;100.00;100009.56;5031410;28;20037;-70
2022/11/18 09:58:33;;;;;;;8.45;2.63;;;;;;;9.01;100.00;100009.56;5029387;28;20045;-70
2022/11/18 10:01:00;;;;;;;11.38;3.13;;;;;;;8.99;100.00;100022.63;5031775;28;20033;-69
2022/11/18 10:03:27;;;;;;;9.13;3.08;;;;;;;9.05;100.00;100025.34;5026880;28;20029;-69
2022/11/18 10:06:11;;;;;;;9.30;2.42;;;;;;;9.05;100.00;100025.34;5033262;28;20022;-69
2022/11/18 10:08:46;;;;;;;8.88;2.67;;;;;;;9.09;100.00;100029.75;5040342;28;20484;-68
2022/11/18 10:11:25;;;;;;;11.95;2.55;;;;;;;9.05;100.00;100025.34;5035810;28;20025;-69
2022/11/18 10:14:17;;;;;;;9.50;2.90;;;;;;;9.07;100.00;100028.84;5048458;28;20082;-69
2022/11/18 10:17:04;;;;;;;12.48;3.42;;;;;;;9.10;100.00;100038.50;5021904;28;20048;-69
2022/11/18 10:19:39;;;;;;;9.45;2.92;;;;;;;9.09;100.00;100042.88;5039835;28;20039;-70
2022/11/18 10:22:10;;;;;;;16.63;3.40;;;;;;;9.09;100.00;100042.88;5036965;28;20021;-70
2022/11/18 10:24:40;;;;;;;12.88;3.88;;;;;;;9.15;100.00;100046.41;5049153;28;20381;-70
2022/11/18 10:27:10;;;;;;;13.02;3.83;;;;;;;9.09;100.00;100045.50;5024653;28;20152;-70
2022/11/18 10:29:36;;;;;;;8.98;3.47;;;;;;;9.10;100.00;100049.88;5042299;28;20033;-71
2022/11/18 10:32:13;;;;;;;12.70;4.00;;;;;;;9.10;100.00;100046.34;5041346;28;20033;-69
2022/11/18 10:34:48;;;;;;;8.95;3.22;;;;;;;9.16;100.00;100048.19;5039934;28;20041;-70
2022/11/18 10:37:29;;;;;;;10.73;3.00;;;;;;;9.15;100.00;100047.28;5038896;28;20361;-70
2022/11/18 10:39:59;;;;;;;13.15;3.30;;;;;;;9.19;100.00;100051.69;5045216;28;20027;-71
2022/11/18 10:42:39;;;;;;;12.35;4.07;;;;;;;9.21;100.00;100059.59;5036872;28;20032;-70
2022/11/18 10:45:20;;;;;;;10.20;3.75;;;;;;;9.28;100.00;100059.66;5032832;28;20033;-70
2022/11/18 10:48:07;;;;;;;9.52;3.70;;;;;;;9.36;100.00;100062.38;5021225;28;20084;-70
2022/11/18 10:50:39;;;;;;;13.98;3.17;;;;;;;9.40;100.00;100069.41;5040062;28;20633;-70
2022/11/18 10:53:25;;;;;;;9.60;4.07;;;;;;;9.35;100.00;100065.00;5028667;28;20370;-70
2022/11/18 10:56:02;;;;;;;11.20;4.47;;;;;;;9.40;100.00;100074.66;5026352;28;20034;-69
2022/11/18 10:58:29;;;;;;;18.27;3.90;;;;;;;9.38;100.00;100071.13;5019022;28;20124;-69
2022/11/18 11:01:18;;;;;;;15.57;4.05;;;;;;;9.39;100.00;100069.41;5032366;28;20021;-70
2022/11/18 11:03:51;;;;;;;9.23;4.28;;;;;;;9.37;100.00;100077.28;5041431;28;20045;-70
2022/11/18 11:06:22;;;;;;;6.90;3.17;;;;;;;9.35;100.00;100071.09;5037264;28;20025;-70
2022/11/18 11:08:48;;;;;;;8.18;3.60;;;;;;;9.35;100.00;100073.72;5023916;28;20030;-69
2022/11/18 11:11:27;;;;;;;12.38;4.20;;;;;;;9.38;100.00;100076.38;5024208;28;20044;-70
2022/11/18 11:14:19;;;;;;;7.72;3.58;;;;;;;9.39;100.00;100078.16;5037757;28;20082;-69
2022/11/18 11:16:58;;;;;;;10.60;4.05;;;;;;;9.39;100.00;100079.91;5005918;28;20033;-69
2022/11/18 11:19:30;;;;;;;10.40;4.25;;;;;;;9.47;100.00;100079.94;5041840;28;20025;-70
2022/11/18 11:21:56;;;;;;;8.10;3.65;;;;;;;9.45;100.00;100083.47;5034360;28;20478;-69
2022/11/18 11:24:25;;;;;;;6.90;3.75;;;;;;;9.41;100.00;100088.66;5043435;28;20104;-68
2022/11/18 11:26:59;;;;;;;10.85;3.92;;;;;;;9.47;100.00;100090.44;5029355;28;20030;-68
2022/11/18 11:30:08;;;;;;;12.07;4.93;;;;;;;9.48;100.00;100093.09;5023731;28;20025;-69
2022/11/18 11:32:59;;;;;;;11.52;4.97;;;;;;;9.44;100.00;100097.44;5022786;28;20052;-69
2022/11/18 11:35:28;;;;;;;14.88;4.75;;;;;;;9.47;100.00;100095.69;5024152;28;20393;-69
2022/11/18 11:37:59;;;;;;;15.40;4.57;;;;;;;9.39;100.00;100093.03;5026399;28;20087;-70
2022/11/18 11:40:38;;;;;;;14.48;4.28;;;;;;;9.44;100.00;100097.44;5035184;28;20032;-68
2022/11/18 11:43:31;;;;;;;14.30;5.07;;;;;;;9.48;100.00;100095.72;5041795;28;20036;-70
2022/11/18 11:46:12;;;;;;;18.38;4.57;;;;;;;9.54;100.00;100105.41;5042353;28;20035;-68
2022/11/18 11:49:14;;;;;;;13.45;5.10;;;;;;;9.56;100.00;100103.66;5041744;28;20025;-68
2022/11/18 11:51:56;;;;;;;14.65;4.43;;;;;;;9.59;100.00;100106.31;5030118;28;20037;-70
2022/11/18 11:54:30;;;;;;;14.98;5.43;;;;;;;9.60;100.00;100110.72;5024433;28;20026;-69
2022/11/18 11:57:19;;;;;;;15.95;5.55;;;;;;;9.64;100.00;100103.75;5040980;28;20037;-70
2022/11/18 11:59:57;;;;;;;11.48;5.35;;;;;;;9.68;100.00;100105.53;5039984;28;20033;-68